^^
Station Historical Data
Daily Summary for September 9, 2017 Units:  English    Metric   Both
« Previous Day
Next Day »
Daily Weekly Monthly Yearly Custom
  High: Low: Average:
Temperature: 66.8 °F 52.2 °F 59.2 °F
Dew Point: 52.0 °F 48.5 °F 50.2 °F
Humidity: 93% 55% 73%
Wind Speed: 6.0mph 0.0mph 1.4mph
Wind Gust: 16.0mph - -
Wind- - West
Pressure: 30.31 in 30.19 in -
Precipitation: 0.00 in    
Historical Graphs
 
 
Tabular Data for September 9, 2017
Time Temperature Dew Point Pressure Wind Wind Speed Wind Gust Humidity Rainfall Rate (Hourly) Conditions
00:00 56.5 °F 50.4 °F 30.19 in Calm   1.0 mph 80% 0.00 in CLR
00:15 56.3 °F 50.5 °F 30.19 in Calm   2.0 mph 81% 0.00 in CLR
00:30 56.4 °F 51.0 °F 30.19 in ENE 1.0 mph 2.0 mph 82% 0.00 in CLR
00:45 56.3 °F 50.9 °F 30.20 in Calm   2.0 mph 82% 0.00 in CLR
01:00 56.1 °F 51.0 °F 30.19 in Calm   2.0 mph 83% 0.00 in CLR
02:15 55.0 °F 50.9 °F 30.19 in Calm   3.0 mph 86% 0.00 in CLR
02:30 54.8 °F 51.0 °F 30.20 in Calm   1.0 mph 87% 0.00 in CLR
02:45 54.6 °F 51.1 °F 30.20 in Calm   1.0 mph 88% 0.00 in CLR
03:00 54.4 °F 51.2 °F 30.20 in Calm   1.0 mph 89% 0.00 in CLR
03:15 54.2 °F 51.0 °F 30.20 in Calm   1.0 mph 89% 0.00 in CLR
03:30 54.1 °F 51.2 °F 30.20 in Calm   3.0 mph 90% 0.00 in CLR
03:45 53.8 °F 50.9 °F 30.21 in Calm   1.0 mph 90% 0.00 in CLR
04:00 53.6 °F 51.0 °F 30.21 in Calm   2.0 mph 91% 0.00 in CLR
04:15 53.2 °F 50.9 °F 30.21 in Calm   2.0 mph 92% 0.00 in CLR
04:30 52.9 °F 50.6 °F 30.21 in Calm   2.0 mph 92% 0.00 in CLR
04:45 52.4 °F 50.1 °F 30.21 in Calm   1.0 mph 92% 0.00 in CLR
05:00 52.2 °F 50.2 °F 30.21 in Calm   3.0 mph 93% 0.00 in CLR
05:15 52.5 °F 49.9 °F 30.22 in Calm   3.0 mph 91% 0.00 in CLR
05:30 52.6 °F 49.4 °F 30.22 in Calm   2.0 mph 89% 0.00 in CLR
05:45 52.6 °F 49.5 °F 30.23 in North 1.0 mph 3.0 mph 89% 0.00 in CLR
06:00 52.6 °F 49.4 °F 30.23 in Calm   2.0 mph 89% 0.00 in CLR
06:15 52.8 °F 49.3 °F 30.24 in Calm   4.0 mph 88% 0.00 in CLR
06:30 52.5 °F 49.0 °F 30.24 in NNW 1.0 mph 5.0 mph 88% 0.00 in CLR
06:45 52.2 °F 48.8 °F 30.25 in Calm   3.0 mph 88% 0.00 in CLR
07:00 52.3 °F 48.9 °F 30.25 in Calm   4.0 mph 88% 0.00 in CLR
07:15 52.4 °F 48.6 °F 30.25 in NNW 1.0 mph 4.0 mph 87% 0.00 in CLR
07:30 52.8 °F 48.7 °F 30.26 in Calm   7.0 mph 86% 0.00 in CLR
07:45 53.2 °F 48.5 °F 30.26 in North 1.0 mph 10.0 mph 84% 0.00 in CLR
08:00 53.7 °F 49.0 °F 30.26 in NNW 1.0 mph 7.0 mph 84% 0.00 in CLR
08:15 54.2 °F 49.1 °F 30.27 in NW 3.0 mph 8.0 mph 83% 0.00 in CLR
08:30 55.1 °F 49.7 °F 30.27 in NW 1.0 mph 6.0 mph 82% 0.00 in CLR
08:45 56.2 °F 50.4 °F 30.27 in NW 1.0 mph 5.0 mph 81% 0.00 in CLR
09:00 57.3 °F 51.2 °F 30.27 in NNW 2.0 mph 7.0 mph 80% 0.00 in CLR
09:15 57.9 °F 51.8 °F 30.27 in NW 1.0 mph 7.0 mph 80% 0.00 in CLR
09:30 58.6 °F 51.4 °F 30.27 in North 2.0 mph 12.0 mph 77% 0.00 in CLR
09:45 59.1 °F 50.8 °F 30.27 in NNE 3.0 mph 9.0 mph 74% 0.00 in CLR
10:00 60.0 °F 50.9 °F 30.28 in North 3.0 mph 9.0 mph 72% 0.00 in CLR
10:15 60.8 °F 50.2 °F 30.28 in NNW 3.0 mph 12.0 mph 68% 0.00 in FEW
10:30 61.1 °F 49.3 °F 30.28 in NNE 3.0 mph 14.0 mph 65% 0.00 in FEW
10:45 62.0 °F 50.1 °F 30.28 in NNW 2.0 mph 8.0 mph 65% 0.00 in FEW
11:00 62.0 °F 48.8 °F 30.28 in NW 3.0 mph 11.0 mph 62% 0.00 in FEW
11:15 62.2 °F 49.0 °F 30.28 in NNW 1.0 mph 16.0 mph 62% 0.00 in FEW
11:30 62.1 °F 49.0 °F 30.28 in NNW 6.0 mph 14.0 mph 62% 0.00 in FEW
11:45 62.7 °F 49.9 °F 30.28 in North 3.0 mph 10.0 mph 63% 0.00 in FEW
12:00 63.2 °F 50.4 °F 30.28 in NNE 5.0 mph 12.0 mph 63% 0.00 in FEW
12:15 62.9 °F 50.1 °F 30.28 in WNW 3.0 mph 10.0 mph 63% 0.00 in FEW
12:30 63.9 °F 50.2 °F 30.28 in NW 2.0 mph 9.0 mph 61% 0.00 in FEW
12:45 63.7 °F 49.5 °F 30.28 in NNW 3.0 mph 12.0 mph 60% 0.00 in FEW
13:00 64.5 °F 50.3 °F 30.28 in North 1.0 mph 9.0 mph 60% 0.00 in FEW
13:15 64.8 °F 50.6 °F 30.28 in NNW 3.0 mph 10.0 mph 60% 0.00 in SCT
13:30 64.9 °F 49.8 °F 30.28 in North 5.0 mph 12.0 mph 58% 0.00 in SCT
13:45 65.1 °F 50.0 °F 30.28 in North 3.0 mph 12.0 mph 58% 0.00 in SCT
14:00 65.8 °F 50.6 °F 30.28 in North 3.0 mph 12.0 mph 58% 0.00 in SCT
14:15 65.3 °F 50.1 °F 30.27 in NNW 2.0 mph 12.0 mph 58% 0.00 in BKN
14:30 64.9 °F 49.3 °F 30.27 in WNW 2.0 mph 10.0 mph 57% 0.00 in BKN
14:45 66.2 °F 49.6 °F 30.26 in NW 2.0 mph 10.0 mph 55% 0.00 in BKN
15:00 66.8 °F 52.0 °F 30.26 in North 1.0 mph 8.0 mph 59% 0.00 in BKN
15:15 66.2 °F 49.6 °F 30.26 in North 3.0 mph 9.0 mph 55% 0.00 in SCT
15:30 66.4 °F 49.8 °F 30.26 in NNE 2.0 mph 8.0 mph 55% 0.00 in SCT
15:45 66.1 °F 49.4 °F 30.26 in NNW 5.0 mph 9.0 mph 55% 0.00 in SCT
16:00 65.5 °F 49.4 °F 30.26 in NW 3.0 mph 9.0 mph 56% 0.00 in SCT
16:15 66.1 °F 50.4 °F 30.25 in ENE 3.0 mph 10.0 mph 57% 0.00 in SCT
16:30 65.8 °F 50.1 °F 30.25 in NNW 5.0 mph 10.0 mph 57% 0.00 in SCT
16:45 64.9 °F 50.7 °F 30.26 in North 2.0 mph 10.0 mph 60% 0.00 in SCT
17:00 65.3 °F 51.1 °F 30.26 in North 3.0 mph 10.0 mph 60% 0.00 in SCT
17:15 64.9 °F 49.8 °F 30.27 in North 2.0 mph 12.0 mph 58% 0.00 in SCT
17:30 63.1 °F 49.9 °F 30.27 in NNE 2.0 mph 8.0 mph 62% 0.00 in SCT
17:45 63.9 °F 50.2 °F 30.27 in NNW 2.0 mph 8.0 mph 61% 0.00 in SCT
18:00 64.5 °F 50.3 °F 30.27 in WNW 1.0 mph 8.0 mph 60% 0.00 in SCT
18:15 64.1 °F 50.4 °F 30.27 in NNW 1.0 mph 6.0 mph 61% 0.00 in FEW
18:30 63.9 °F 50.2 °F 30.26 in NE 1.0 mph 7.0 mph 61% 0.00 in FEW
18:45 63.8 °F 50.5 °F 30.26 in Calm   6.0 mph 62% 0.00 in FEW
19:00 62.7 °F 50.3 °F 30.26 in Calm   6.0 mph 64% 0.00 in FEW
19:15 61.7 °F 50.2 °F 30.27 in NNW 1.0 mph 3.0 mph 66% 0.00 in FEW
19:30 61.1 °F 50.0 °F 30.27 in Calm   3.0 mph 67% 0.00 in FEW
19:45 60.8 °F 50.2 °F 30.27 in ENE 1.0 mph 4.0 mph 68% 0.00 in FEW
20:00 60.5 °F 50.3 °F 30.28 in NNE 3.0 mph 6.0 mph 69% 0.00 in FEW
20:15 60.3 °F 50.5 °F 30.29 in Calm   4.0 mph 70% 0.00 in CLR
20:30 60.0 °F 50.6 °F 30.29 in NNW 2.0 mph 5.0 mph 71% 0.00 in CLR
20:45 59.7 °F 50.7 °F 30.30 in Calm   4.0 mph 72% 0.00 in CLR
21:00 59.0 °F 51.1 °F 30.30 in Calm   3.0 mph 75% 0.00 in CLR
21:15 58.3 °F 50.8 °F 30.30 in Calm   3.0 mph 76% 0.00 in CLR
21:30 58.2 °F 50.3 °F 30.29 in Calm   4.0 mph 75% 0.00 in CLR
21:45 58.0 °F 50.1 °F 30.30 in Calm   4.0 mph 75% 0.00 in CLR
22:00 57.6 °F 50.1 °F 30.30 in Calm   3.0 mph 76% 0.00 in CLR
22:15 57.7 °F 50.2 °F 30.30 in NW 1.0 mph 6.0 mph 76% 0.00 in CLR
22:30 57.5 °F 50.3 °F 30.30 in NW 1.0 mph 7.0 mph 77% 0.00 in CLR
22:45 57.2 °F 50.4 °F 30.30 in Calm   4.0 mph 78% 0.00 in CLR
23:00 56.6 °F 50.5 °F 30.31 in WNW 1.0 mph 4.0 mph 80% 0.00 in CLR
23:15 56.3 °F 50.5 °F 30.31 in NW 1.0 mph 4.0 mph 81% 0.00 in CLR
23:30 56.2 °F 50.8 °F 30.31 in NW 1.0 mph 7.0 mph 82% 0.00 in CLR
23:45 56.3 °F 50.8 °F 30.31 in Calm   7.0 mph 82% 0.00 in CLR
TarryTown NY Weather
Compliments of Weather Underground - 1.5 mb